Date,TemperatureHighF,TemperatureAvgF,TemperatureLowF,DewpointHighF,DewpointAvgF,DewpointLowF,HumidityHigh,HumidityAvg,HumidityLow,PressureMaxIn,PressureMinIn,WindSpeedMaxMPH,WindSpeedAvgMPH,GustSpeedMaxMPH,PrecipitationSumIn
2014-2-7,51,49,45,48,46,43,94,91,85,30.39,30.32,0,0,1,0.04
2014-2-8,65,52,41,52,47,40,97,83,56,30.46,30.34,7,1,10,0.01
2014-2-9,65,56,46,54,51,44,93,82,67,30.40,30.26,6,1,10,0.00
2014-2-10,66,53,44,57,49,42,96,87,69,30.33,30.17,3,0,9,0.00
2014-2-11,78,55,41,56,49,40,100,82,36,30.27,30.16,4,0,9,0.01
2014-2-12,80,61,44,48,42,37,89,57,24,30.31,30.16,6,1,8,0.00
2014-2-13,84,50,45,43,10,-100,76,38,17,30.25,30.11,3,-207,6,0.00
2014-2-14,82,58,41,51,40,35,81,57,21,30.23,30.09,4,0,7,0.00
2014-2-15,83,59,42,48,40,34,78,54,18,30.20,30.09,5,0,6,0.00
2014-2-16,77,54,43,52,36,-100,88,61,32,30.24,30.12,5,-52,7,0.00
2014-2-17,71,24,59,54,-46,-100,75,21,47,30.24,30.13,4,-631,9,0.00
2014-2-18,67,36,49,53,-7,-100,91,47,59,30.23,30.09,4,-378,8,0.00
2014-2-19,67,53,43,54,49,41,94,85,63,30.20,30.05,5,1,8,0.00
2014-2-20,81,59,40,55,43,33,97,63,23,30.20,30.08,5,1,9,0.01
2014-2-21,79,57,41,47,38,31,84,54,20,30.17,30.02,5,0,9,0.00
2014-2-22,74,54,39,44,36,30,86,55,25,30.11,30.01,3,0,7,0.00
2014-2-23,73,54,38,49,39,30,88,61,30,30.18,30.06,4,0,7,0.00
2014-2-24,72,55,40,53,46,37,92,73,41,30.20,30.07,5,0,9,0.00
2014-2-25,70,56,45,52,50,43,92,79,52,30.22,30.12,6,1,10,0.00
2014-2-26,68,58,50,53,50,46,88,75,53,30.25,30.16,5,1,10,0.00
2014-2-27,69,59,54,62,55,50,96,87,71,30.20,30.02,5,1,10,0.25
2014-2-28,61,57,52,60,56,51,98,96,94,30.02,29.84,16,3,25,2.09
2014-3-1,60,55,50,57,53,49,98,93,83,30.13,29.94,6,1,16,0.51
2014-3-2,61,54,46,56,51,45,98,91,75,30.34,30.14,4,0,7,0.08
2014-3-3,68,55,46,57,51,45,100,86,62,30.31,30.17,7,1,10,0.01
2014-3-4,66,54,45,57,51,44,98,89,68,30.23,30.12,3,0,7,0.00
2014-3-5,72,59,45,61,54,44,98,85,66,30.26,30.14,5,0,9,0.01
2014-3-6,70,60,53,60,56,52,100,87,68,30.26,30.11,4,1,10,0.01
2014-3-7,70,60,46,59,54,45,94,81,63,30.16,30.05,6,1,9,0.00
2014-3-8,82,62,44,48,39,26,96,52,13,30.29,30.14,6,1,12,0.00
2014-3-9,86,67,49,39,32,25,60,32,13,30.31,30.18,7,1,12,0.00
2014-3-10,80,60,44,47,39,30,85,52,19,30.25,30.12,5,0,9,0.00
2014-3-11,77,58,42,55,45,38,93,67,33,30.17,30.05,4,0,6,0.00
2014-3-12,78,60,48,56,50,27,97,77,16,30.18,30.08,7,1,11,0.00
2014-3-13,68,57,46,54,50,44,94,80,57,30.19,30.07,7,0,11,0.00
2014-3-14,72,56,41,58,50,40,97,82,55,30.29,30.18,4,0,9,0.01
2014-3-15,84,60,44,60,51,43,97,77,26,30.36,30.26,7,1,10,0.01
2014-3-16,89,66,46,47,36,21,90,44,9,30.40,30.22,6,1,12,0.00
2014-3-17,73,58,42,58,47,33,92,68,51,30.24,29.94,5,0,9,0.00
2014-3-18,72,57,46,56,51,44,96,81,56,30.10,29.96,5,0,7,0.00
2014-3-19,75,56,42,58,49,41,97,80,43,30.22,30.10,7,0,9,0.01
2014-3-20,75,56,43,56,49,40,94,78,42,30.22,30.08,5,1,8,0.00
2014-3-21,67,58,46,53,50,44,93,77,58,30.17,30.10,4,0,12,0.00
2014-3-22,66,57,48,54,50,46,94,79,59,30.27,30.16,6,0,9,0.00
2014-3-23,68,56,45,56,51,43,95,83,62,30.31,30.16,6,0,12,0.00
2014-3-24,65,59,55,57,54,53,93,86,75,30.27,30.15,7,0,10,0.00
2014-3-25,63,58,56,57,55,53,94,89,78,30.19,30.06,2,0,7,0.00
2014-3-26,64,57,53,55,51,46,93,81,57,30.15,30.06,12,1,14,0.02
2014-3-27,64,54,45,53,48,43,96,80,59,30.27,30.15,7,1,13,0.00
2014-3-28,68,55,42,55,48,40,95,78,50,30.33,30.23,6,1,9,0.00
2014-3-29,75,59,44,56,50,43,96,75,44,30.32,30.11,4,0,10,0.01
2014-3-30,68,58,43,53,48,39,94,73,46,30.23,30.13,10,1,13,0.00
2014-3-31,68,52,39,53,44,36,93,76,49,30.22,30.14,7,1,12,0.00
2014-4-1,62,53,47,51,44,33,95,74,36,30.19,30.12,10,1,15,0.16
2014-4-2,59,51,40,50,44,38,96,79,52,30.26,30.11,11,1,18,0.16
2014-4-3,67,52,37,50,43,36,97,76,52,30.33,30.19,6,0,11,0.00
2014-4-4,65,52,42,50,45,40,95,79,56,30.23,30.11,5,1,12,0.00
2014-4-5,66,54,43,53,46,40,93,75,49,30.22,30.12,6,0,12,0.00
2014-4-6,77,59,40,54,44,35,95,62,23,30.27,30.15,5,1,11,0.00
2014-4-7,87,66,44,47,40,34,81,46,16,30.25,30.15,6,1,11,0.00
2014-4-8,92,69,47,44,38,30,72,40,11,30.28,30.11,4,1,9,0.00
2014-4-9,90,66,45,50,40,33,70,44,13,30.18,30.06,6,0,10,0.00
2014-4-10,86,61,42,52,39,26,84,50,17,30.14,30.03,7,0,7,0.00
2014-4-11,82,62,45,56,48,35,92,65,19,30.11,29.99,5,0,10,0.00
2014-4-12,66,59,52,53,51,49,92,75,60,30.14,30.04,8,1,11,0.00
2014-4-13,67,59,53,53,50,47,86,74,56,30.19,30.11,5,0,10,0.00
2014-4-14,84,64,43,57,46,35,95,62,18,30.22,30.09,8,2,11,0.00
2014-4-15,80,60,44,58,52,43,96,76,30,30.19,29.96,4,0,10,0.00
2014-4-16,70,60,50,56,52,47,93,79,57,30.05,29.94,6,1,8,0.00
2014-4-17,68,59,50,58,54,48,95,84,68,30.09,30.00,5,1,11,0.00
2014-4-18,71,62,53,56,54,49,90,77,58,30.10,30.02,6,1,12,0.00
2014-6-1,66,62,59,59,55,52,80,78,77,29.99,29.98,0,0,1,0.00
2014-6-2,84,68,54,61,56,49,85,67,43,30.04,29.96,8,1,11,0.00
2014-6-3,89,71,54,58,54,49,84,58,30,30.06,29.92,6,0,12,0.00
2014-6-4,87,70,53,59,54,46,85,61,34,30.02,29.91,8,1,9,0.00
2014-6-5,84,68,55,60,56,48,87,67,37,30.02,29.91,7,1,13,0.00
2014-6-6,77,67,58,60,58,53,88,74,56,30.00,29.95,9,2,12,0.00
2014-6-7,78,68,62,60,58,56,84,71,52,30.00,29.90,7,1,11,0.00
2014-6-8,82,70,62,62,60,57,86,71,51,29.98,29.87,6,0,9,0.00
2014-6-9,84,68,62,65,61,58,91,80,53,29.97,29.90,7,1,12,0.00
2014-6-10,73,66,63,62,60,57,89,80,64,30.05,29.92,7,1,14,0.00
2014-6-11,81,70,60,60,58,54,83,67,49,30.07,29.99,9,1,10,0.00
2014-6-12,81,69,61,61,58,56,85,70,49,30.10,30.04,6,1,10,0.00
2014-6-13,79,69,62,59,58,56,84,69,48,30.10,30.01,9,1,10,0.00
2014-6-14,80,69,59,60,57,53,84,68,49,30.05,29.94,6,1,11,0.00
2014-6-15,77,68,60,60,57,55,85,70,47,30.03,29.98,8,1,11,0.00
2014-6-16,79,68,60,59,57,53,83,67,45,30.07,30.00,7,1,11,0.00
2014-6-17,78,66,57,59,55,50,82,68,46,30.09,30.03,9,2,13,0.00
2014-6-18,76,64,49,58,52,44,84,67,48,30.10,30.05,6,1,12,0.00
2014-6-19,83,67,49,63,55,45,88,69,46,30.11,30.03,8,1,10,0.00
2014-6-20,86,70,57,63,59,53,93,70,42,30.07,30.00,8,1,10,0.00
2014-6-21,85,69,57,66,59,52,93,73,42,30.05,29.99,8,1,10,0.00
2014-6-22,79,69,59,61,59,53,85,72,54,30.07,30.01,11,2,11,0.00
2014-6-23,78,67,58,61,58,53,84,73,57,30.10,30.03,9,1,12,0.00
2014-6-24,81,69,60,63,60,55,85,73,51,30.12,30.02,6,1,11,0.00
2014-6-25,81,69,62,63,60,57,86,74,52,30.08,29.97,9,1,10,0.00
2014-6-26,82,70,62,64,61,57,87,74,54,30.06,29.98,7,1,11,0.00
2014-6-27,78,70,62,64,61,57,86,75,60,30.03,29.97,8,2,12,0.00
2014-6-28,80,70,64,65,62,60,87,77,57,30.02,29.96,9,1,12,0.00
2014-6-29,84,71,65,66,62,61,85,75,54,30.04,29.97,8,1,12,0.00
2014-6-30,80,70,64,65,62,59,86,77,59,30.07,29.97,6,1,10,0.00
2014-7-1,83,71,62,66,63,58,88,76,56,30.04,29.94,6,1,10,0.00
2014-7-2,85,73,64,67,64,60,88,75,53,30.05,29.96,7,1,11,0.00
2014-7-3,93,74,62,67,63,58,91,72,40,30.09,29.95,6,0,9,0.00
2014-7-4,92,74,61,68,62,55,92,69,30,30.14,30.04,7,1,11,0.00
2014-7-5,94,78,64,65,60,50,86,59,25,30.16,30.08,7,1,16,0.00
2014-7-6,93,78,62,64,57,44,77,52,20,30.16,30.01,7,1,11,0.00
2014-7-7,90,74,60,67,59,48,84,61,35,30.07,29.97,10,1,12,0.00
2014-7-8,87,73,62,66,63,58,90,73,48,30.11,30.00,8,1,10,0.00
2014-7-9,86,74,65,66,63,60,86,71,50,30.11,30.01,7,1,10,0.00
2014-7-10,86,75,66,66,63,60,83,68,49,30.12,30.01,7,0,16,0.00
2014-7-11,87,74,63,64,62,58,84,68,46,30.14,30.07,6,1,11,0.00
2014-7-12,85,72,58,65,61,54,86,70,47,30.16,30.04,6,1,10,0.00
2014-7-13,83,72,61,67,63,57,87,73,57,30.08,29.99,8,1,12,0.00
2014-7-14,83,72,67,68,65,62,87,79,60,30.14,30.04,9,1,14,0.00
2014-7-15,74,70,68,67,64,62,89,82,73,30.19,30.11,7,1,10,0.00
2014-7-16,82,72,66,64,62,59,86,72,52,30.20,30.08,8,1,11,0.00
2014-7-17,80,71,62,62,60,54,84,68,49,30.20,30.10,9,1,14,0.00
2014-7-18,80,69,56,62,58,52,88,69,53,30.18,30.07,8,1,12,0.00
2014-7-19,79,68,62,64,60,56,84,76,60,30.14,30.06,6,1,8,0.00
2014-7-20,82,71,62,65,61,57,87,72,55,30.15,30.07,9,1,12,0.00
2014-7-21,84,71,58,64,60,54,88,71,51,30.22,30.09,8,1,13,0.00
2014-7-22,89,74,57,66,60,53,89,65,40,30.20,30.09,9,1,13,0.00
2014-7-23,94,76,56,65,56,50,83,54,27,30.15,29.98,7,0,11,0.00
2014-7-24,100,78,57,66,58,47,84,54,31,30.03,29.85,6,1,13,0.00
2014-7-25,90,75,66,68,65,60,87,72,43,30.06,29.97,10,1,12,0.00
2014-7-26,89,75,63,69,65,59,90,72,43,30.11,30.03,7,1,9,0.00
2014-7-27,97,77,68,68,65,57,87,68,31,30.15,30.02,9,1,13,0.00
2014-7-28,96,80,70,67,57,41,87,51,21,30.20,30.08,6,1,12,0.00
2014-7-29,95,78,62,63,53,43,75,45,22,30.18,30.04,9,1,9,0.00
2014-7-30,94,77,62,67,62,54,83,62,37,30.11,29.99,6,0,8,0.00
2014-7-31,94,77,62,68,64,57,86,66,39,30.09,29.96,8,1,11,0.00
2014-8-1,89,75,68,69,66,63,87,73,50,30.06,29.99,8,1,11,0.00
2014-8-2,84,73,66,70,67,62,92,82,57,30.11,30.01,5,0,7,0.01
2014-8-3,88,76,71,72,70,67,94,82,57,30.08,30.00,9,1,11,0.13
2014-8-4,88,76,63,74,66,57,96,75,45,30.13,30.04,7,1,10,0.00
2014-8-5,88,71,54,65,58,50,90,66,28,30.18,30.09,6,1,10,0.00
2014-8-6,82,70,60,62,59,54,87,70,50,30.21,30.07,7,1,12,0.00
2014-8-7,81,70,59,64,60,54,85,73,54,30.14,30.02,7,1,11,0.00
2014-8-8,81,72,67,65,63,62,84,74,57,30.09,30.00,6,1,10,0.00
2014-8-9,85,73,67,67,65,62,85,75,55,30.11,30.04,7,1,11,0.00
2014-8-10,89,74,60,67,64,57,90,72,48,30.12,30.02,6,1,9,0.00
2014-8-11,89,74,63,68,64,59,86,72,48,30.10,30.02,6,1,10,0.00
2014-8-12,87,73,63,68,64,59,88,74,53,30.13,30.02,8,1,13,0.00
2014-8-13,87,73,65,68,64,61,88,75,51,30.13,30.03,8,1,11,0.00
2014-8-14,91,74,64,66,62,57,89,69,41,30.10,30.03,6,1,10,0.00
2014-8-15,97,77,59,67,60,54,85,60,36,30.13,30.02,8,1,12,0.00
2014-8-16,96,79,62,65,56,45,81,50,19,30.13,30.01,10,1,12,0.00
2014-8-17,96,78,60,65,58,51,83,53,26,30.11,29.95,5,0,11,0.00
2014-8-18,88,73,64,68,64,61,92,75,48,30.03,29.91,8,1,11,0.00
2014-8-19,80,71,64,65,62,58,86,73,58,30.04,29.98,9,2,14,0.00
2014-8-20,83,70,60,64,61,56,88,73,51,30.09,30.00,7,1,12,0.00
2014-8-21,87,72,61,67,62,57,87,72,51,30.10,29.99,6,1,11,0.00
2014-8-22,88,72,62,68,62,57,91,73,35,30.12,30.03,7,1,10,0.00
2014-8-23,85,71,56,63,58,50,85,66,35,30.12,29.98,7,1,11,0.00
2014-8-24,85,71,57,64,60,53,87,69,46,30.06,29.95,9,1,10,0.00
2014-8-25,88,74,63,66,60,51,84,65,30,30.07,29.98,8,1,13,0.00
2014-8-26,90,74,60,64,60,55,84,64,33,30.11,30.03,7,1,13,0.00
2014-8-27,96,78,59,60,54,43,79,48,16,30.17,30.07,6,0,11,0.00
2014-8-28,98,80,61,59,54,48,65,43,24,30.14,29.99,9,1,13,0.00
2014-8-29,93,74,57,67,57,44,83,57,37,30.03,29.91,7,1,10,0.00
2014-8-30,95,74,61,66,62,56,94,70,31,29.98,29.86,5,0,11,0.00
2014-8-31,89,73,62,69,63,56,90,72,35,29.98,29.90,7,1,11,0.00
2014-9-1,87,72,57,67,62,54,92,73,47,29.98,29.89,7,1,13,0.00
2014-9-2,86,70,60,66,60,56,85,69,50,30.00,29.89,7,1,11,0.00
2014-9-3,84,74,68,66,64,62,85,72,54,29.94,29.82,7,1,11,0.00
2014-9-4,84,73,63,65,63,57,83,71,51,29.93,29.85,7,0,10,0.00
2014-9-5,88,72,58,68,62,54,90,75,50,30.04,29.94,5,0,9,0.00
2014-9-6,100,78,63,70,64,59,89,67,35,30.06,29.89,7,1,10,0.00
2014-9-7,98,80,65,67,61,54,79,56,26,29.95,29.85,7,1,14,0.00
2014-9-8,93,80,73,69,61,48,85,57,22,30.01,29.93,6,0,9,0.00
2014-9-9,91,78,64,67,58,42,82,55,19,30.06,29.96,9,1,12,0.00
2014-9-10,93,74,56,65,56,50,81,58,26,30.05,29.90,6,1,10,0.00
2014-9-11,96,79,60,67,59,52,78,54,24,30.01,29.89,8,1,11,0.00
2014-9-12,98,79,61,69,61,54,81,57,30,29.98,29.85,6,1,11,0.00
2014-9-13,102,81,61,68,62,55,80,56,24,29.92,29.79,6,0,10,0.00
2014-9-14,106,84,64,68,60,55,76,49,21,29.88,29.77,7,0,11,0.00
2014-9-15,106,86,67,69,64,60,80,53,26,29.92,29.81,11,1,11,0.00
2014-9-16,106,83,68,71,64,58,76,57,24,29.91,29.80,7,1,20,0.04
2014-9-17,99,83,71,70,65,58,85,59,31,29.92,29.81,6,1,11,0.00
2014-9-18,84,73,62,67,63,57,86,72,55,30.02,29.92,8,1,12,0.00
2014-9-19,82,73,64,66,63,57,83,71,55,30.05,29.96,7,1,16,0.00
2014-9-20,81,70,60,65,61,56,86,74,55,30.09,30.01,6,1,10,0.00
2014-9-21,83,70,61,64,60,56,88,72,50,30.14,30.04,7,1,10,0.00
2014-9-22,86,70,54,67,60,51,90,73,52,30.14,30.03,5,0,10,0.00
2014-9-23,94,72,53,65,59,50,91,68,34,30.13,29.98,5,0,9,0.00
2014-9-24,98,77,57,62,54,49,83,51,19,30.06,29.93,7,0,10,0.00
2014-9-25,93,78,62,61,54,46,68,47,20,30.06,29.95,6,0,11,0.00
2014-9-26,86,72,61,66,60,54,84,66,37,30.03,29.95,7,1,12,0.00
2014-9-27,77,65,54,61,56,50,88,73,54,30.04,29.94,8,1,13,0.00
2014-9-28,76,65,54,61,56,50,87,74,50,30.09,30.00,8,1,17,0.00
2014-9-29,83,67,53,62,57,50,91,71,40,30.10,29.96,7,1,13,0.00
2014-9-30,90,70,53,64,57,49,89,66,32,30.03,29.88,6,0,12,0.00
2014-10-1,84,68,52,64,58,48,87,73,51,30.01,29.89,7,0,12,0.00
2014-10-2,98,74,53,58,45,31,91,48,11,30.10,30.00,8,1,12,0.00
2014-10-3,100,75,51,43,32,24,56,26,7,30.17,30.04,7,0,9,0.00
2014-10-4,100,74,52,58,36,25,56,30,7,30.10,29.96,5,0,9,0.00
2014-10-5,97,73,51,55,39,31,55,35,11,30.06,29.96,4,0,9,0.00
2014-10-6,96,72,50,50,37,29,54,33,10,30.06,29.95,7,0,11,0.00
2014-10-7,98,74,58,63,44,32,77,39,10,30.05,29.94,8,1,11,0.00
2014-10-8,88,69,52,64,54,42,87,61,30,30.03,29.94,7,1,10,0.00
2014-10-9,80,69,58,63,59,53,89,72,55,30.10,30.03,7,1,11,0.00
2014-10-10,84,68,55,64,59,52,92,75,48,30.15,30.05,7,1,9,0.00
2014-10-11,87,70,60,65,62,56,89,76,47,30.13,30.00,4,0,8,0.00
2014-10-12,82,67,58,65,60,54,93,80,58,30.09,29.98,6,0,8,0.00
2014-10-13,84,70,59,66,62,56,93,80,52,30.16,30.07,5,0,10,0.00
2014-10-14,80,68,62,63,61,58,93,78,56,30.17,30.04,6,0,11,0.00
2014-10-15,78,69,58,61,58,52,84,69,46,30.15,30.07,9,1,11,0.00
2014-10-16,80,66,54,62,57,50,86,72,47,30.18,30.05,7,1,13,0.00
2014-10-17,78,66,58,62,58,54,88,76,56,30.14,30.05,5,0,11,0.00
2014-10-18,77,67,57,62,58,53,89,73,53,30.09,29.96,8,1,14,0.00
2014-10-19,78,65,52,64,57,49,91,76,54,30.07,29.96,7,1,10,0.00
2014-10-20,79,67,57,64,60,54,89,79,60,30.10,30.00,6,0,9,0.00
2014-10-21,83,68,56,64,59,52,90,75,52,30.08,29.94,4,0,9,0.00
2014-10-22,87,66,48,62,53,45,90,68,39,30.11,30.01,6,0,10,0.00
2014-10-23,90,67,47,61,51,43,86,62,27,30.15,30.03,5,0,9,0.00
2014-10-24,92,68,47,54,43,31,78,48,12,30.15,30.05,6,0,8,0.00
2014-10-25,86,68,55,59,50,38,79,54,27,30.20,30.09,5,0,9,0.00
2014-10-26,77,63,53,63,56,49,88,77,58,30.16,30.02,7,1,11,0.00
2014-10-27,77,61,47,61,53,45,92,75,49,30.11,30.02,6,0,9,0.00
2014-10-28,84,64,49,63,55,46,93,75,48,30.19,30.07,7,1,8,0.00
2014-10-29,89,67,49,61,53,46,91,66,28,30.19,30.07,6,0,11,0.00
2014-10-30,84,64,48,63,54,44,87,72,39,30.16,30.06,6,0,11,0.00
2014-10-31,72,65,56,61,57,53,89,75,61,30.12,29.99,7,1,9,0.00
2014-11-1,68,59,51,60,52,48,95,76,54,30.15,29.99,8,1,14,0.18
2014-11-2,70,56,47,56,49,44,96,78,50,30.23,30.15,6,0,11,0.02
2014-11-3,80,57,42,52,40,25,94,63,13,30.32,30.20,7,0,12,0.01
2014-11-4,83,59,41,39,32,20,77,45,10,30.36,30.21,7,1,10,0.00
2014-11-5,89,63,40,44,32,16,64,39,9,30.27,30.13,4,0,9,0.00
2014-11-6,94,67,46,41,33,26,61,35,10,30.32,30.18,8,0,12,0.00
2014-11-7,92,66,46,40,34,29,60,36,12,30.27,30.10,5,0,8,0.00
2014-11-8,92,66,45,49,38,32,63,42,15,30.21,30.07,5,0,8,0.00
2014-11-9,84,62,44,61,49,34,88,66,37,30.14,29.95,5,0,7,0.00
2014-11-10,72,62,55,57,54,50,87,75,59,30.05,29.98,7,1,10,0.00
2014-11-11,70,64,59,56,54,52,79,71,55,30.11,30.04,5,1,10,0.00
2014-11-12,71,62,51,56,54,47,86,74,55,30.19,30.08,6,0,11,0.00
2014-11-13,71,60,50,57,52,46,90,77,55,30.25,30.16,4,0,9,0.00
2014-11-14,72,62,52,63,58,49,95,86,68,30.19,30.11,6,0,10,0.10
2014-11-15,72,59,48,60,54,47,96,85,66,30.25,30.14,6,0,10,0.00
2014-11-16,76,59,43,59,30,2,96,48,6,30.32,30.19,9,1,14,0.01
2014-11-17,80,64,42,38,22,6,52,25,7,30.31,30.19,9,1,11,0.00
2014-11-18,80,56,38,32,26,21,54,35,12,30.33,30.23,4,0,9,0.00
2014-11-19,75,55,39,54,38,24,81,56,24,30.32,30.21,5,0,9,0.00
2014-11-20,71,56,40,58,48,35,89,76,49,30.31,30.14,6,0,11,0.01
2014-11-21,71,59,47,60,52,44,96,80,53,30.23,30.08,6,0,9,0.04
2014-11-22,74,56,42,58,49,40,95,79,48,30.29,30.16,8,0,9,0.00
2014-11-23,81,57,43,57,40,24,93,60,17,30.32,30.18,7,0,9,0.00
2014-11-24,83,57,37,34,22,12,55,31,8,30.48,30.30,7,0,13,0.00
2014-11-25,82,58,39,27,21,15,51,29,8,30.55,30.39,6,0,10,0.00
2014-11-26,88,60,39,47,30,21,55,36,12,30.43,30.25,5,0,8,0.00
2014-11-27,92,63,42,33,28,24,56,33,9,30.28,30.14,3,0,8,0.00
2014-11-28,86,59,41,44,31,24,56,39,15,30.17,30.02,6,0,8,0.00
2014-11-29,76,56,37,55,39,26,82,58,21,30.11,30.00,9,1,12,0.00
2014-11-30,68,62,50,61,56,44,94,82,68,30.27,30.07,12,2,15,0.47
2014-12-1,70,59,50,63,55,49,97,88,63,30.33,30.15,0,0,6,0.01
2014-12-2,63,59,54,59,56,51,95,91,73,30.18,30.06,5,0,10,0.74
2014-12-3,69,64,61,65,62,59,97,94,86,30.16,30.05,7,1,12,0.52
2014-12-4,72,63,54,64,60,52,98,89,68,30.24,30.08,4,0,8,0.18
2014-12-5,69,58,51,61,55,49,97,89,70,30.31,30.20,4,0,5,0.01
2014-12-6,72,60,51,61,56,50,97,86,62,30.38,30.27,6,0,8,0.00
2014-12-7,78,60,47,61,53,46,97,81,48,30.36,30.23,6,0,10,0.01
2014-12-8,78,60,50,58,52,47,96,78,45,30.27,30.16,3,0,6,0.01
2014-12-9,78,58,44,59,51,43,96,79,44,30.28,30.13,3,0,12,0.00
2014-12-10,72,57,44,60,51,42,95,83,53,30.21,30.09,5,0,6,0.01
2014-12-11,69,61,54,59,55,51,92,83,68,30.17,30.04,7,1,11,0.00
2014-12-12,63,56,51,57,54,50,95,90,75,30.26,30.02,9,1,18,1.23
2014-12-13,65,53,44,55,47,42,97,84,47,30.32,30.23,1,0,1,0.01
2014-12-14,67,51,40,53,45,39,96,82,50,30.32,30.21,1,0,1,0.01
2014-12-15,65,51,40,54,45,38,96,82,48,30.27,30.13,1,0,1,0.01
2014-12-16,61,53,46,54,50,44,95,89,68,30.21,30.13,1,0,1,0.06
2014-12-17,64,55,48,58,50,45,98,86,63,30.30,30.14,1,0,2,0.25
2014-12-18,64,38,44,53,34,43,95,61,62,30.40,30.28,4,0,7,0.00
2014-12-19,68,52,42,56,47,41,97,84,54,30.43,30.30,5,0,10,0.01
2014-12-20,63,53,43,57,50,41,97,89,74,30.39,30.29,4,0,6,0.01
2014-12-21,71,55,44,59,51,43,97,86,60,30.35,30.19,5,0,7,27.41
2014-12-22,78,57,44,60,51,43,97,82,45,30.24,30.09,3,0,9,0.01
2014-12-23,86,58,45,61,47,41,97,70,20,30.25,30.14,4,0,9,0.01
2014-12-24,76,54,43,51,43,40,89,66,31,30.26,30.00,2,0,7,0.00
2014-12-25,69,52,40,54,41,25,95,68,21,30.09,29.95,6,0,10,0.01
2014-12-26,65,51,38,34,24,17,68,39,16,30.38,30.09,7,1,13,0.00
2014-12-27,65,46,34,34,26,15,76,52,15,30.53,30.38,9,1,15,0.00
2014-12-28,63,44,31,40,32,26,84,64,31,30.49,30.34,5,0,9,0.00
2014-12-29,64,46,33,48,38,30,92,75,49,30.37,30.20,3,0,7,0.00
2014-12-30,57,48,41,51,42,38,95,80,54,30.23,30.07,6,1,14,0.75
2014-12-31,56,44,31,37,28,20,87,58,25,30.27,30.08,7,0,18,0.09
2015-1-1,60,42,29,40,33,26,92,74,39,30.38,30.27,4,0,7,0.00
2015-1-2,60,44,31,46,37,29,94,80,55,30.39,30.25,6,0,8,0.01